Time;durP1;ratioP1;P1;durP2;ratioP2;P2;SDS_P1;SDS_P2;PMS_P1;PMS_P2;Temp;Humidity;BMP_temperature;BMP_pressure;BME280_temperature;BME280_humidity;BME280_pressure;Samples;Min_cycle;Max_cycle;Signal;HPM_P1;HPM_P2
2022/06/09 00:01:15;;;;;;;4.80;2.00;;;;;;;15.99;94.60;99700.19;5012554;28;20034;-76
2022/06/09 00:03:54;;;;;;;4.32;2.55;;;;;;;15.93;94.94;99704.91;5009437;28;20512;-76
2022/06/09 00:06:21;;;;;;;4.07;1.73;;;;;;;15.95;94.80;99700.38;5012140;28;20512;-76
2022/06/09 00:08:49;;;;;;;5.30;2.38;;;;;;;15.97;94.61;99703.84;5013123;28;20378;-77
2022/06/09 00:11:19;;;;;;;3.67;2.28;;;;;;;16.00;94.96;99711.69;5008480;28;20029;-76
2022/06/09 00:13:45;;;;;;;4.25;1.90;;;;;;;15.88;94.89;99712.22;5011983;28;20155;-76
2022/06/09 00:16:10;;;;;;;4.15;1.90;;;;;;;15.75;95.87;99712.72;5012798;28;20815;-76
2022/06/09 00:18:37;;;;;;;3.67;1.80;;;;;;;15.75;96.00;99718.03;5009722;28;20089;-76
2022/06/09 00:21:03;;;;;;;2.00;1.20;;;;;;;15.83;95.04;99720.38;5012300;28;20075;-76
2022/06/09 00:23:29;;;;;;;2.85;1.70;;;;;;;15.76;94.25;99719.75;5020445;28;20456;-75
2022/06/09 00:25:54;;;;;;;2.72;1.30;;;;;;;15.82;93.62;99715.97;5012398;28;20048;-75
2022/06/09 00:28:20;;;;;;;3.15;1.70;;;;;;;15.94;92.80;99715.47;5010966;28;20496;-76
2022/06/09 00:30:46;;;;;;;4.15;2.10;;;;;;;15.91;93.26;99720.06;5011382;28;20095;-76
2022/06/09 00:33:12;;;;;;;4.60;2.30;;;;;;;16.07;93.22;99715.84;5010689;28;20034;-76
2022/06/09 00:35:39;;;;;;;2.83;1.50;;;;;;;16.18;91.02;99718.91;5012847;28;20428;-76
2022/06/09 00:38:04;;;;;;;5.97;2.00;;;;;;;15.82;92.64;99717.78;4992440;28;20026;-76
2022/06/09 00:40:30;;;;;;;4.40;2.58;;;;;;;15.68;94.90;99726.28;5012339;28;20547;-76
2022/06/09 00:42:55;;;;;;;3.20;2.08;;;;;;;15.55;95.13;99732.06;5011597;28;20155;-76
2022/06/09 00:45:38;;;;;;;3.35;1.60;;;;;;;15.46;95.20;99731.59;5011866;28;20045;-76
2022/06/09 00:48:06;;;;;;;3.92;2.15;;;;;;;15.60;94.10;99734.56;5008391;28;20052;-76
2022/06/09 00:50:36;;;;;;;5.55;2.42;;;;;;;15.41;94.46;99733.56;5012356;28;20493;-76
2022/06/09 00:53:06;;;;;;;4.28;2.10;;;;;;;15.74;93.20;99731.38;5011050;28;20045;-75
2022/06/09 00:55:33;;;;;;;3.90;2.35;;;;;;;15.57;92.96;99732.03;5007431;28;20038;-75
2022/06/09 00:58:11;;;;;;;3.70;2.28;;;;;;;15.59;93.77;99729.28;5010837;28;20034;-75
2022/06/09 01:00:50;;;;;;;5.95;2.70;;;;;;;15.79;93.63;99734.72;5008502;28;20050;-75
2022/06/09 01:03:26;;;;;;;5.15;2.55;;;;;;;15.57;93.48;99730.22;5010513;28;20041;-75
2022/06/09 01:05:56;;;;;;;6.30;2.60;;;;;;;15.52;93.84;99737.53;5008925;28;20041;-75
2022/06/09 01:08:21;;;;;;;4.18;2.10;;;;;;;15.55;92.34;99736.53;5011957;28;20043;-75
2022/06/09 01:10:46;;;;;;;5.78;2.65;;;;;;;15.58;91.78;99736.41;5012027;28;20057;-75
2022/06/09 01:13:12;;;;;;;5.43;2.50;;;;;;;15.68;90.41;99736.94;5011005;28;20132;-76
2022/06/09 01:15:43;;;;;;;7.10;2.38;;;;;;;15.55;90.30;99733.88;5011697;28;20073;-75
2022/06/09 01:18:45;;;;;;;5.03;2.63;;;;;;;15.51;90.26;99730.47;5011795;28;20073;-75
2022/06/09 01:21:43;;;;;;;4.05;2.00;;;;;;;15.55;89.38;99725.91;5010237;28;20052;-75
2022/06/09 01:24:46;;;;;;;4.40;2.17;;;;;;;15.47;89.42;99725.34;5007752;28;20034;-75
2022/06/09 01:27:22;;;;;;;5.10;2.60;;;;;;;15.44;89.34;99728.97;5009679;28;20489;-75
2022/06/09 01:29:52;;;;;;;3.53;2.35;;;;;;;15.38;89.28;99734.56;5008283;28;20033;-75
2022/06/09 01:32:33;;;;;;;4.53;2.20;;;;;;;15.33;88.76;99734.72;5011093;28;20120;-75
2022/06/09 01:35:11;;;;;;;5.40;2.25;;;;;;;15.33;88.30;99733.84;5008132;28;20033;-76
2022/06/09 01:37:45;;;;;;;6.22;2.35;;;;;;;15.27;87.88;99732.31;5011543;28;20466;-75
2022/06/09 01:40:13;;;;;;;5.13;2.50;;;;;;;15.30;87.98;99734.84;5008412;28;20034;-75
2022/06/09 01:42:45;;;;;;;5.38;2.50;;;;;;;15.24;87.36;99739.50;5009743;28;20045;-76
2022/06/09 01:45:14;;;;;;;4.63;2.50;;;;;;;15.22;87.60;99741.34;5010507;28;20029;-75
2022/06/09 01:47:47;;;;;;;7.93;2.38;;;;;;;15.19;88.05;99744.13;5006219;28;20121;-75
2022/06/09 01:50:35;;;;;;;4.05;2.58;;;;;;;15.18;87.49;99747.72;5011511;28;20447;-76
2022/06/09 01:53:04;;;;;;;5.40;2.85;;;;;;;15.18;87.38;99742.41;4979886;28;20050;-75
2022/06/09 01:55:32;;;;;;;6.30;2.88;;;;;;;15.21;87.06;99744.94;5011030;28;20207;-75
2022/06/09 01:58:01;;;;;;;5.97;2.58;;;;;;;15.27;86.58;99742.94;5010892;28;20061;-76
2022/06/09 02:00:28;;;;;;;4.57;2.40;;;;;;;15.33;86.01;99748.00;5011377;28;20057;-75
2022/06/09 02:03:08;;;;;;;4.93;2.60;;;;;;;15.40;85.69;99756.59;5010723;28;20171;-75
2022/06/09 02:05:38;;;;;;;4.85;2.40;;;;;;;15.43;85.72;99752.97;5006730;28;20117;-75
2022/06/09 02:08:07;;;;;;;4.75;2.55;;;;;;;15.52;85.70;99763.25;5011021;28;20041;-74
2022/06/09 02:10:39;;;;;;;6.38;2.50;;;;;;;15.59;84.61;99770.09;5011321;28;20037;-75
2022/06/09 02:13:14;;;;;;;5.05;2.25;;;;;;;15.65;84.21;99769.84;5006751;28;20034;-74
2022/06/09 02:15:47;;;;;;;3.13;2.03;;;;;;;15.66;83.48;99776.88;5011000;28;20088;-75
2022/06/09 02:18:19;;;;;;;6.18;2.15;;;;;;;15.70;83.76;99783.00;5007180;28;20040;-74
2022/06/09 02:21:12;;;;;;;6.53;2.17;;;;;;;15.74;83.90;99785.44;5011180;28;20029;-74
2022/06/09 02:23:39;;;;;;;4.00;2.03;;;;;;;15.80;84.00;99776.38;5007788;28;20049;-75
2022/06/09 02:26:05;;;;;;;6.47;2.28;;;;;;;15.82;83.54;99776.31;5011026;28;20046;-75
2022/06/09 02:28:31;;;;;;;4.30;2.35;;;;;;;15.86;84.57;99783.25;5010688;28;20184;-75
2022/06/09 02:30:56;;;;;;;5.55;2.70;;;;;;;15.89;84.78;99783.97;5010367;28;20671;-75
2022/06/09 02:33:22;;;;;;;6.32;2.20;;;;;;;15.86;85.38;99786.78;5010928;28;20049;-75
2022/06/09 02:35:49;;;;;;;5.05;2.45;;;;;;;15.83;86.13;99783.38;5012284;28;20133;-75
2022/06/09 02:38:15;;;;;;;5.75;2.13;;;;;;;15.87;85.98;99785.84;5014540;28;20113;-75
2022/06/09 02:40:40;;;;;;;5.85;2.30;;;;;;;15.87;85.95;99790.28;5014320;28;20496;-75
2022/06/09 02:43:06;;;;;;;5.00;1.85;;;;;;;15.95;85.13;99791.72;5013503;28;20030;-75
2022/06/09 02:45:33;;;;;;;5.00;2.22;;;;;;;15.96;84.55;99788.16;5014475;28;20480;-75
2022/06/09 02:47:59;;;;;;;3.13;1.90;;;;;;;15.98;83.42;99788.97;5014438;28;20037;-75
2022/06/09 02:50:25;;;;;;;5.90;2.17;;;;;;;15.98;83.64;99790.72;5014518;28;20435;-75
2022/06/09 02:52:51;;;;;;;4.65;2.33;;;;;;;15.97;82.98;99791.66;5013684;28;20034;-75
2022/06/09 02:55:16;;;;;;;4.88;2.42;;;;;;;15.98;83.54;99790.72;5013955;28;20083;-75
2022/06/09 02:57:41;;;;;;;3.63;2.08;;;;;;;15.98;83.08;99794.28;5014010;28;20117;-75
2022/06/09 03:00:10;;;;;;;4.78;2.17;;;;;;;15.89;83.36;99793.78;5014282;28;20056;-75
2022/06/09 03:02:36;;;;;;;3.88;1.90;;;;;;;15.82;83.70;99802.91;5013767;28;20037;-74
2022/06/09 03:05:02;;;;;;;5.93;2.38;;;;;;;15.86;84.17;99805.41;5014267;28;20033;-75
2022/06/09 03:07:27;;;;;;;4.43;2.55;;;;;;;15.86;84.65;99807.19;5009913;28;20038;-75
2022/06/09 03:09:53;;;;;;;5.47;2.35;;;;;;;15.95;84.26;99812.13;5020627;28;20503;-75
2022/06/09 03:12:20;;;;;;;6.00;2.60;;;;;;;16.05;84.35;99816.16;5012850;28;20512;-75
2022/06/09 03:14:45;;;;;;;7.20;2.95;;;;;;;16.17;83.65;99821.00;5013491;28;20536;-75
2022/06/09 03:17:11;;;;;;;4.03;2.53;;;;;;;16.27;83.08;99820.63;5013848;28;20034;-75
2022/06/09 03:19:37;;;;;;;5.72;2.45;;;;;;;16.33;82.49;99825.72;5013210;28;20567;-74
2022/06/09 03:22:03;;;;;;;4.25;2.42;;;;;;;16.41;82.40;99824.47;5013014;28;20041;-75
2022/06/09 03:24:29;;;;;;;5.78;2.45;;;;;;;16.40;82.77;99828.06;5013683;28;20027;-75
2022/06/09 03:26:55;;;;;;;3.53;2.10;;;;;;;16.42;83.28;99833.31;5012340;28;20515;-75
2022/06/09 03:29:21;;;;;;;6.53;2.05;;;;;;;16.50;82.62;99831.19;5013703;28;20045;-75
2022/06/09 03:31:47;;;;;;;4.60;2.17;;;;;;;16.55;81.72;99829.22;5013133;28;20049;-75
2022/06/09 03:34:13;;;;;;;6.30;2.05;;;;;;;16.53;81.80;99835.53;5013463;28;20038;-75
2022/06/09 03:36:39;;;;;;;7.25;3.92;;;;;;;16.56;81.71;99838.09;5013569;28;20404;-75
2022/06/09 03:39:04;;;;;;;4.78;2.13;;;;;;;16.62;81.49;99843.16;5013361;28;20052;-75
2022/06/09 03:41:30;;;;;;;6.47;2.60;;;;;;;16.60;81.37;99840.53;5012916;28;20040;-75
2022/06/09 03:43:55;;;;;;;4.38;2.20;;;;;;;16.60;81.81;99839.69;5013211;28;20034;-75
2022/06/09 03:46:20;;;;;;;5.82;2.08;;;;;;;16.61;81.96;99847.63;5013352;28;20125;-75
2022/06/09 03:48:46;;;;;;;5.40;2.10;;;;;;;16.65;81.38;99849.19;5013290;28;20050;-75
2022/06/09 03:51:12;;;;;;;4.40;1.80;;;;;;;16.68;81.22;99858.88;5014881;28;20088;-75
2022/06/09 03:53:39;;;;;;;5.70;2.92;;;;;;;16.64;82.33;99858.13;5012960;28;20374;-75
2022/06/09 03:56:06;;;;;;;4.90;2.25;;;;;;;16.68;81.12;99850.88;5013397;28;20527;-74
2022/06/09 03:58:31;;;;;;;6.70;2.25;;;;;;;16.77;80.60;99868.28;5013003;28;20038;-74
2022/06/09 04:00:57;;;;;;;4.82;1.90;;;;;;;16.72;80.71;99860.47;5012617;28;20148;-74
2022/06/09 04:03:22;;;;;;;6.65;1.90;;;;;;;16.76;80.31;99866.53;5006454;28;20033;-75
2022/06/09 04:05:47;;;;;;;3.88;1.45;;;;;;;16.79;80.46;99871.78;5012389;28;20133;-75
2022/06/09 04:08:13;;;;;;;4.22;1.92;;;;;;;16.78;80.86;99870.03;5011112;28;20034;-74
2022/06/09 04:10:38;;;;;;;4.55;1.55;;;;;;;16.85;80.45;99866.19;5012958;28;20041;-74
2022/06/09 04:13:04;;;;;;;5.78;2.00;;;;;;;16.91;79.96;99865.94;5010809;28;20531;-74
2022/06/09 04:15:29;;;;;;;4.80;1.50;;;;;;;16.87;79.95;99869.63;5012658;28;20496;-74
2022/06/09 04:17:55;;;;;;;3.70;1.90;;;;;;;16.92;79.91;99872.97;5012359;28;20056;-73
2022/06/09 04:20:24;;;;;;;6.32;1.85;;;;;;;16.96;80.16;99879.91;5012268;28;20037;-74
2022/06/09 04:22:49;;;;;;;3.42;1.55;;;;;;;16.98;80.05;99877.22;5010972;28;20084;-73
2022/06/09 04:25:16;;;;;;;9.00;4.88;;;;;;;17.03;79.98;99878.75;5011572;28;20050;-73
2022/06/09 04:27:42;;;;;;;5.53;3.65;;;;;;;17.07;79.42;99880.31;5011057;28;20042;-74
2022/06/09 04:30:08;;;;;;;10.50;6.45;;;;;;;17.13;79.38;99878.31;5012485;28;20045;-74
2022/06/09 04:32:33;;;;;;;5.05;2.00;;;;;;;17.11;79.06;99888.19;5010117;28;20520;-74
2022/06/09 04:34:59;;;;;;;4.25;1.63;;;;;;;17.14;78.85;99878.25;5012298;28;20109;-73
2022/06/09 04:37:59;;;;;;;2.90;1.30;;;;;;;17.17;78.39;99878.13;5012214;28;20122;-73
2022/06/09 04:40:10;;;;;;;3.38;1.40;;;;;;;17.20;78.40;99882.47;5012395;28;20037;-74
2022/06/09 04:42:36;;;;;;;3.80;1.38;;;;;;;17.18;77.92;99890.50;5011464;28;20480;-74
2022/06/09 04:45:02;;;;;;;2.90;1.25;;;;;;;17.20;77.86;99882.47;5012122;28;20076;-73
2022/06/09 04:47:27;;;;;;;4.88;1.20;;;;;;;17.21;78.33;99879.75;5011743;28;20496;-74
2022/06/09 04:49:53;;;;;;;3.83;2.00;;;;;;;17.18;79.02;99889.66;5012217;28;20026;-73
2022/06/09 04:52:18;;;;;;;4.88;2.35;;;;;;;17.27;78.37;99894.59;5011512;28;20041;-74
2022/06/09 04:54:43;;;;;;;3.47;1.65;;;;;;;17.22;78.66;99894.78;5011271;28;20034;-74
2022/06/09 04:57:09;;;;;;;3.85;2.20;;;;;;;17.20;78.84;99888.66;5010680;28;20036;-74
2022/06/09 04:59:34;;;;;;;6.55;1.80;;;;;;;17.16;79.33;99894.19;5011044;28;20113;-74
2022/06/09 05:01:59;;;;;;;3.85;1.40;;;;;;;17.17;79.36;99895.94;5007625;28;20029;-74
2022/06/09 05:04:25;;;;;;;2.47;1.30;;;;;;;17.16;79.43;99897.75;5011833;28;20404;-74
2022/06/09 05:06:50;;;;;;;2.70;1.00;;;;;;;17.13;78.73;99892.50;5011019;28;20745;-73
2022/06/09 05:09:17;;;;;;;3.97;1.05;;;;;;;17.09;78.40;99902.47;5009972;28;20405;-74
2022/06/09 05:11:42;;;;;;;3.60;0.88;;;;;;;17.07;78.42;99896.31;5009678;28;20038;-75
2022/06/09 05:14:08;;;;;;;2.40;1.05;;;;;;;17.08;78.36;99894.50;5011041;28;20038;-74
2022/06/09 05:16:33;;;;;;;2.15;0.70;;;;;;;16.93;79.25;99892.53;5012013;28;20404;-73
2022/06/09 05:18:58;;;;;;;3.42;0.98;;;;;;;16.81;80.02;99907.22;5011592;28;20070;-74
2022/06/09 05:21:23;;;;;;;3.92;0.90;;;;;;;16.75;80.15;99912.78;5011196;28;20041;-73
2022/06/09 05:23:49;;;;;;;2.38;1.00;;;;;;;16.83;80.65;99914.22;5011664;28;20398;-74
2022/06/09 05:26:15;;;;;;;2.25;1.05;;;;;;;16.83;81.35;99918.69;5011594;28;20520;-74
2022/06/09 05:28:41;;;;;;;2.97;0.98;;;;;;;16.77;81.27;99918.91;5010078;28;20042;-74
2022/06/09 05:31:06;;;;;;;4.20;0.95;;;;;;;16.76;81.26;99920.69;5010999;28;20527;-74
2022/06/09 05:33:31;;;;;;;4.20;0.90;;;;;;;16.63;82.79;99923.00;5011407;28;20038;-74
2022/06/09 05:35:57;;;;;;;2.33;0.98;;;;;;;16.45;84.98;99918.41;5011525;28;20068;-74
2022/06/09 05:46:38;;;;;;;4.47;1.50;;;;;;;16.00;89.59;99933.44;5008841;28;20029;-74
2022/06/09 05:49:04;;;;;;;3.70;1.05;;;;;;;16.04;90.42;99936.03;5010949;28;20572;-74
2022/06/09 05:51:31;;;;;;;2.78;1.02;;;;;;;16.08;90.45;99941.16;5006903;28;20492;-74
2022/06/09 05:53:56;;;;;;;4.78;1.52;;;;;;;16.08;91.14;99941.16;5010026;28;20084;-74
2022/06/09 05:56:21;;;;;;;4.57;1.98;;;;;;;16.18;91.97;99945.19;5011226;28;20065;-74
2022/06/09 05:58:47;;;;;;;2.75;1.23;;;;;;;16.34;90.77;99945.47;5010799;28;20077;-74
2022/06/09 06:01:13;;;;;;;2.28;1.17;;;;;;;16.42;89.98;99939.84;5010449;28;20041;-74
2022/06/09 06:03:39;;;;;;;4.15;1.73;;;;;;;16.56;89.88;99941.97;5011015;28;20092;-75
2022/06/09 06:08:49;;;;;;;4.45;2.10;;;;;;;16.87;88.64;99941.59;5008408;28;20041;-75
2022/06/09 06:11:15;;;;;;;5.03;1.90;;;;;;;17.18;87.17;99948.31;5012516;28;20046;-74
2022/06/09 06:13:42;;;;;;;6.53;1.83;;;;;;;17.28;87.63;99949.66;5013439;28;20044;-74
2022/06/09 06:16:07;;;;;;;6.63;1.92;;;;;;;17.39;87.20;99955.38;5010351;28;20044;-74
2022/06/09 06:18:32;;;;;;;5.45;1.63;;;;;;;17.50;86.35;99954.91;5014124;28;20396;-75
2022/06/09 06:20:58;;;;;;;3.58;1.30;;;;;;;17.68;86.31;99958.56;5014486;28;20572;-74
2022/06/09 06:23:29;;;;;;;4.78;1.90;;;;;;;17.79;84.86;99953.69;5013624;28;20451;-75
2022/06/09 06:25:56;;;;;;;3.97;1.60;;;;;;;17.89;84.43;99964.78;5014558;28;20871;-74
2022/06/09 06:28:22;;;;;;;2.08;1.00;;;;;;;17.85;83.08;99965.88;5012848;28;20038;-74
2022/06/09 06:30:48;;;;;;;6.47;1.17;;;;;;;17.82;82.70;99964.22;5013031;28;20096;-74
2022/06/09 06:33:13;;;;;;;3.72;1.00;;;;;;;17.91;83.35;99966.44;5012792;28;20099;-74
2022/06/09 06:35:39;;;;;;;2.20;0.98;;;;;;;17.93;81.82;99972.59;5011470;28;20501;-75
2022/06/09 06:38:04;;;;;;;4.07;1.70;;;;;;;17.96;81.01;99983.13;5012646;28;20029;-75
2022/06/09 06:40:30;;;;;;;2.50;1.00;;;;;;;18.00;80.96;99982.97;5012505;28;20045;-74
2022/06/09 06:42:56;;;;;;;3.10;1.15;;;;;;;17.94;79.91;99984.13;5012849;28;20037;-74
2022/06/09 06:45:21;;;;;;;5.80;1.50;;;;;;;17.96;78.41;99983.13;5013361;28;20496;-75
2022/06/09 06:47:46;;;;;;;3.08;1.40;;;;;;;18.03;79.41;99988.22;5014410;28;20033;-75
2022/06/09 06:50:13;;;;;;;4.65;1.40;;;;;;;18.21;78.71;99986.47;5014524;28;20404;-74
2022/06/09 06:52:39;;;;;;;2.00;1.13;;;;;;;18.28;78.12;99983.44;5013743;28;20045;-74
2022/06/09 06:55:06;;;;;;;4.32;1.63;;;;;;;18.32;77.11;99984.19;5014109;28;20038;-74
2022/06/09 06:57:33;;;;;;;3.35;1.60;;;;;;;18.31;76.43;99991.34;5014136;28;20041;-74
2022/06/09 06:59:58;;;;;;;2.22;1.15;;;;;;;18.44;76.91;99996.09;5010726;28;20038;-74
2022/06/09 07:02:24;;;;;;;3.55;1.48;;;;;;;18.57;77.38;99999.91;5013631;28;20084;-73
2022/06/09 07:04:49;;;;;;;4.30;1.02;;;;;;;18.64;76.08;99996.00;5014288;28;20042;-74
2022/06/09 07:07:14;;;;;;;2.42;1.08;;;;;;;18.69;75.42;100004.69;5014227;28;20069;-74
2022/06/09 07:09:40;;;;;;;6.93;3.33;;;;;;;18.40;74.37;100004.25;5013466;28;20161;-74
2022/06/09 07:12:05;;;;;;;5.05;1.80;;;;;;;18.26;75.05;100012.06;5013507;28;20038;-74
2022/06/09 07:14:33;;;;;;;2.97;1.50;;;;;;;18.30;75.18;100010.09;5013178;28;20073;-74
2022/06/09 07:16:59;;;;;;;2.95;1.63;;;;;;;18.21;75.20;100018.53;5011789;28;20034;-74
2022/06/09 07:19:24;;;;;;;4.00;1.48;;;;;;;18.19;75.11;100023.94;5013482;28;20037;-74
2022/06/09 07:21:50;;;;;;;3.60;1.50;;;;;;;18.15;75.17;100014.34;5004268;28;20172;-73
2022/06/09 07:24:15;;;;;;;3.08;1.40;;;;;;;18.07;75.41;100014.69;5013416;28;20049;-73
2022/06/09 07:26:40;;;;;;;2.53;1.30;;;;;;;17.89;75.87;100019.06;5012929;28;20103;-74
2022/06/09 07:29:06;;;;;;;3.58;1.42;;;;;;;17.86;75.87;100026.31;5013282;28;20037;-74
2022/06/09 07:31:32;;;;;;;4.20;1.17;;;;;;;17.90;75.26;100034.13;5013009;28;20034;-74
2022/06/09 07:33:57;;;;;;;3.25;1.67;;;;;;;17.92;76.49;100037.63;5011838;28;20535;-73
2022/06/09 07:36:26;;;;;;;3.13;1.50;;;;;;;18.02;76.17;100031.84;5009821;28;20037;-74
2022/06/09 07:38:52;;;;;;;4.53;1.65;;;;;;;18.22;74.82;100039.84;5011666;28;20045;-74
2022/06/09 07:41:20;;;;;;;2.63;1.45;;;;;;;18.33;74.54;100050.03;5010775;28;20041;-74
2022/06/09 07:43:46;;;;;;;5.93;1.52;;;;;;;18.33;74.32;100053.56;5009559;28;20030;-74
2022/06/09 07:46:12;;;;;;;3.17;1.63;;;;;;;18.30;75.24;100048.38;5012603;28;20160;-74
2022/06/09 07:48:37;;;;;;;3.55;1.30;;;;;;;18.46;73.53;100047.66;5013300;28;20108;-73
2022/06/09 07:51:03;;;;;;;3.00;1.50;;;;;;;18.48;73.47;100051.13;5012580;28;20038;-74
2022/06/09 07:53:29;;;;;;;4.80;1.73;;;;;;;18.24;74.10;100056.66;5013577;28;20042;-74
2022/06/09 07:55:55;;;;;;;2.88;1.58;;;;;;;18.10;75.47;100056.41;5013330;28;20044;-74
2022/06/09 07:58:20;;;;;;;3.05;1.70;;;;;;;18.13;75.17;100058.94;5013060;28;20515;-74
2022/06/09 08:00:46;;;;;;;3.65;1.60;;;;;;;18.21;75.49;100053.25;5010583;28;20034;-74
2022/06/09 08:03:22;;;;;;;3.72;1.90;;;;;;;18.34;74.91;100066.00;5012624;28;20061;-73
2022/06/09 08:05:48;;;;;;;3.35;1.70;;;;;;;18.27;74.96;100069.00;5013037;28;20034;-73
2022/06/09 08:08:13;;;;;;;3.72;1.65;;;;;;;18.30;75.48;100069.72;5012967;28;20042;-73
2022/06/09 08:10:41;;;;;;;2.85;1.40;;;;;;;18.29;75.26;100073.34;5012942;28;20092;-74
2022/06/09 08:13:07;;;;;;;2.97;1.67;;;;;;;18.28;75.35;100066.25;5012110;28;20048;-74
2022/06/09 08:15:33;;;;;;;3.38;1.85;;;;;;;18.22;76.51;100074.56;5012175;28;20084;-74
2022/06/09 08:18:00;;;;;;;3.60;1.77;;;;;;;18.29;76.20;100075.16;5012593;28;20515;-74
2022/06/09 08:20:28;;;;;;;3.15;1.50;;;;;;;18.18;75.51;100086.31;5012922;28;20033;-74
2022/06/09 08:23:00;;;;;;;4.53;1.80;;;;;;;18.13;75.82;100085.63;5012150;28;20042;-74
2022/06/09 08:25:26;;;;;;;6.10;1.83;;;;;;;18.04;76.73;100088.72;5012757;28;20050;-74
2022/06/09 08:27:51;;;;;;;2.95;1.50;;;;;;;17.86;77.43;100091.25;5011804;28;20107;-73
2022/06/09 08:30:17;;;;;;;2.38;1.50;;;;;;;17.59;78.11;100097.75;5012432;28;20045;-74
2022/06/09 08:32:42;;;;;;;3.70;1.65;;;;;;;17.55;79.02;100101.47;5011227;28;20034;-73
2022/06/09 08:35:12;;;;;;;3.30;1.67;;;;;;;17.58;79.85;100104.00;5012306;28;20030;-74
2022/06/09 08:37:37;;;;;;;3.78;1.70;;;;;;;17.59;80.38;100108.44;5012504;28;20042;-73
2022/06/09 08:40:05;;;;;;;3.28;2.00;;;;;;;17.67;79.94;100108.97;5009008;28;20041;-73
2022/06/09 08:43:19;;;;;;;5.15;1.90;;;;;;;17.39;81.36;100102.09;5005050;28;20087;-74
2022/06/09 08:45:45;;;;;;;5.10;2.33;;;;;;;17.19;83.05;100118.06;5012032;28;20041;-73
2022/06/09 08:48:17;;;;;;;4.03;2.17;;;;;;;17.12;85.08;100120.09;5012333;28;20404;-74
2022/06/09 08:50:52;;;;;;;4.28;2.15;;;;;;;17.23;85.51;100119.66;5012342;28;20042;-74
2022/06/09 08:53:23;;;;;;;4.57;2.60;;;;;;;17.25;86.72;100123.16;5011874;28;20042;-74
2022/06/09 08:55:58;;;;;;;5.85;2.72;;;;;;;17.25;87.70;100129.34;5009977;28;20034;-74
2022/06/09 08:58:30;;;;;;;5.13;2.45;;;;;;;17.07;87.90;100125.59;5011720;28;20120;-74
2022/06/09 09:01:02;;;;;;;;;;;;;;;17.04;88.33;100130.19;5009017;28;20042;-74
2022/06/09 09:03:40;;;;;;;3.93;2.37;;;;;;;16.92;88.33;100131.53;5012211;28;19921;-74
2022/06/09 09:06:24;;;;;;;4.07;2.58;;;;;;;16.95;88.81;100133.19;5008353;28;20285;-74
2022/06/09 09:08:51;;;;;;;4.75;3.10;;;;;;;16.97;90.30;100142.00;5018614;28;20459;-74
2022/06/09 09:11:42;;;;;;;3.90;3.15;;;;;;;16.94;89.34;100145.66;5011290;28;20045;-74
2022/06/09 09:14:17;;;;;;;6.68;3.13;;;;;;;16.92;89.72;100150.19;5008480;28;20042;-74
2022/06/09 09:17:00;;;;;;;8.07;4.72;;;;;;;16.93;91.61;100151.94;5011144;28;20041;-74
2022/06/09 09:19:37;;;;;;;5.05;2.92;;;;;;;17.04;90.54;100154.19;5011800;28;20125;-74
2022/06/09 09:22:13;;;;;;;3.90;2.97;;;;;;;17.12;89.88;100156.56;5011152;28;20045;-74
2022/06/09 09:25:01;;;;;;;4.38;2.92;;;;;;;17.11;89.99;100155.69;5011291;28;20427;-74
2022/06/09 09:28:09;;;;;;;5.43;2.92;;;;;;;17.19;89.79;100168.72;5009979;28;20489;-74
2022/06/09 09:30:40;;;;;;;5.97;4.03;;;;;;;17.33;90.69;100166.38;5008552;28;20061;-74
2022/06/09 09:33:14;;;;;;;5.35;3.80;;;;;;;17.47;89.87;100166.66;5010929;28;20034;-74
2022/06/09 09:35:41;;;;;;;5.35;3.83;;;;;;;17.51;88.85;100168.31;5007831;28;20033;-74
2022/06/09 09:38:14;;;;;;;5.30;3.72;;;;;;;17.60;88.45;100174.19;5011298;28;20038;-75
2022/06/09 09:40:44;;;;;;;7.00;4.80;;;;;;;17.76;88.42;100169.94;5008606;28;20117;-74
2022/06/09 09:43:15;;;;;;;7.53;5.53;;;;;;;17.75;87.91;100171.75;5009146;28;20034;-74
2022/06/09 09:45:53;;;;;;;8.15;5.90;;;;;;;17.78;86.67;100177.91;5011138;28;20486;-74
2022/06/09 09:48:19;;;;;;;8.07;5.78;;;;;;;17.83;87.31;100186.63;5011351;28;20124;-74
2022/06/09 09:51:00;;;;;;;8.45;4.78;;;;;;;17.90;86.78;100190.78;5009627;28;20128;-74
2022/06/09 09:53:38;;;;;;;6.65;4.63;;;;;;;17.95;86.50;100189.66;5010686;28;20065;-73
2022/06/09 09:56:15;;;;;;;7.82;5.43;;;;;;;17.90;86.78;100191.66;5008038;28;20049;-74
2022/06/09 09:58:46;;;;;;;7.35;4.85;;;;;;;17.93;87.37;100194.19;5010735;28;20041;-75
2022/06/09 10:01:17;;;;;;;7.33;5.20;;;;;;;18.09;86.17;100196.22;5008345;28;20036;-74
2022/06/09 10:09:31;;;;;;;6.60;4.05;;;;;;;18.34;84.00;100198.72;5010815;28;20127;-73
2022/06/09 10:12:02;;;;;;;5.15;4.25;;;;;;;18.34;84.00;100193.38;5004586;28;20081;-74
2022/06/09 10:14:46;;;;;;;7.60;4.72;;;;;;;18.37;84.59;100199.44;5010422;28;20049;-74
2022/06/09 10:17:29;;;;;;;6.60;3.50;;;;;;;18.38;83.91;100197.63;5008546;28;20045;-74
2022/06/09 10:20:27;;;;;;;4.95;4.00;;;;;;;18.36;84.33;100197.69;5006960;28;20042;-73
2022/06/09 10:23:10;;;;;;;5.68;4.57;;;;;;;18.23;84.97;100200.97;5004858;28;20085;-74
2022/06/09 10:25:38;;;;;;;4.85;3.97;;;;;;;18.15;85.31;100203.94;5013594;28;20432;-74
2022/06/09 10:28:19;;;;;;;6.32;4.25;;;;;;;18.17;85.52;100210.09;5010422;28;20484;-74
2022/06/09 10:31:07;;;;;;;6.75;4.40;;;;;;;18.17;86.50;100212.78;5007620;28;20045;-74
2022/06/09 10:34:09;;;;;;;6.82;5.45;;;;;;;18.33;86.56;100221.00;5007210;28;20037;-74
2022/06/09 10:36:50;;;;;;;5.50;4.07;;;;;;;18.36;85.09;100228.88;5006079;28;20048;-74
2022/06/09 10:39:32;;;;;;;4.63;3.35;;;;;;;18.32;84.86;100228.16;5008104;28;20066;-74
2022/06/09 10:42:03;;;;;;;5.65;4.13;;;;;;;18.31;85.38;100225.53;5002901;28;20042;-74
2022/06/09 10:44:31;;;;;;;5.35;3.95;;;;;;;18.39;85.33;100221.63;5010568;28;20481;-75
2022/06/09 10:56:02;;;;;;;6.05;4.72;;;;;;;18.18;85.28;100226.06;5010400;28;20548;-74
2022/06/09 10:58:34;;;;;;;6.32;4.05;;;;;;;18.11;86.02;100229.06;5009180;28;20282;-75
2022/06/09 11:01:00;;;;;;;5.28;4.20;;;;;;;18.13;86.83;100236.09;5012272;28;20040;-75
2022/06/09 11:03:46;;;;;;;6.85;5.15;;;;;;;18.23;86.09;100233.88;5013635;28;20400;-74
2022/06/09 11:06:53;;;;;;;5.63;4.30;;;;;;;18.28;85.80;100231.88;5014118;28;20038;-74
2022/06/09 11:09:55;;;;;;;6.93;3.92;;;;;;;18.46;85.65;100230.22;5009821;28;20065;-73
2022/06/09 11:12:37;;;;;;;7.38;4.18;;;;;;;18.60;86.11;100232.28;5010802;28;20056;-74
2022/06/09 11:15:09;;;;;;;5.72;3.70;;;;;;;18.75;84.75;100231.63;5011027;28;20037;-74
2022/06/09 11:17:52;;;;;;;6.80;4.70;;;;;;;18.82;83.76;100233.09;5012557;28;20053;-73
2022/06/09 11:20:43;;;;;;;8.98;4.70;;;;;;;19.00;82.87;100241.25;5011876;28;20088;-74
2022/06/09 11:23:11;;;;;;;5.57;3.90;;;;;;;19.17;81.36;100235.97;5010227;28;20025;-74
2022/06/09 11:26:01;;;;;;;6.25;3.97;;;;;;;19.20;82.88;100229.59;5017224;28;20053;-74
2022/06/09 11:28:39;;;;;;;6.95;4.20;;;;;;;19.36;80.56;100230.66;5012373;28;20069;-74
2022/06/09 11:31:23;;;;;;;6.65;4.07;;;;;;;19.39;81.40;100232.31;5010946;28;20037;-74
2022/06/09 11:34:03;;;;;;;6.07;4.00;;;;;;;19.40;80.46;100234.03;5012123;28;20034;-74
2022/06/09 11:36:41;;;;;;;4.63;3.50;;;;;;;19.47;79.60;100224.78;5009151;28;20144;-74
2022/06/09 11:39:44;;;;;;;4.22;3.38;;;;;;;19.43;79.04;100229.38;5011600;28;20038;-74
2022/06/09 11:42:23;;;;;;;7.78;4.65;;;;;;;19.44;79.67;100228.47;5012658;28;20042;-74
2022/06/09 11:44:51;;;;;;;6.38;5.22;;;;;;;19.48;79.21;100229.19;5013152;28;20124;-74
2022/06/09 11:47:19;;;;;;;5.45;4.40;;;;;;;19.37;78.53;100236.84;5013427;28;20034;-74
2022/06/09 11:49:48;;;;;;;7.75;6.95;;;;;;;19.50;79.14;100232.66;5009995;28;20045;-74
2022/06/09 11:52:21;;;;;;;9.90;6.65;;;;;;;19.47;78.77;100239.03;5012816;28;20100;-74
2022/06/09 11:54:53;;;;;;;7.45;5.35;;;;;;;19.60;78.00;100236.63;5013174;28;20065;-74
2022/06/09 11:57:33;;;;;;;;;;;;;;;19.52;76.96;100241.47;5007997;28;20095;-73
2022/06/09 12:00:24;;;;;;;8.77;6.05;;;;;;;19.64;76.34;100243.56;5012969;28;19913;-74
2022/06/09 12:03:17;;;;;;;8.73;5.45;;;;;;;19.78;75.83;100239.38;5012552;28;20065;-74
2022/06/09 12:05:59;;;;;;;7.65;5.47;;;;;;;19.76;74.76;100236.78;5009524;28;20072;-74
2022/06/09 12:08:31;;;;;;;6.03;4.78;;;;;;;19.66;74.38;100246.16;5012962;28;20540;-74
2022/06/09 12:11:18;;;;;;;6.40;4.60;;;;;;;19.82;74.59;100243.66;5008985;28;20484;-73
2022/06/09 12:14:02;;;;;;;8.80;5.43;;;;;;;19.99;72.46;100248.16;5013910;28;20037;-74